createdAt,value
2018-05-31T00:00:52.727Z,69.55
2018-05-31T00:03:20.251Z,69.54
2018-05-31T00:05:47.761Z,70.19
2018-05-31T00:08:15.274Z,69.35
2018-05-31T00:10:42.769Z,69.81
2018-05-31T00:13:10.291Z,69.50
2018-05-31T00:15:37.849Z,69.89
2018-05-31T00:18:05.478Z,70.05
2018-05-31T00:20:33.039Z,70.25
2018-05-31T00:23:00.549Z,69.98
2018-05-31T00:25:28.020Z,70.08
2018-05-31T00:27:55.512Z,70.17
2018-05-31T00:30:23.027Z,70.09
2018-05-31T00:32:50.596Z,70.22
2018-05-31T00:35:18.110Z,70.37
2018-05-31T00:37:45.631Z,70.40
2018-05-31T00:40:13.146Z,70.33
2018-05-31T00:42:41.384Z,70.52
2018-05-31T00:45:08.894Z,70.56
2018-05-31T00:47:36.389Z,70.51
2018-05-31T00:50:03.967Z,70.58
2018-05-31T00:52:31.487Z,70.63
2018-05-31T00:54:58.946Z,70.67
2018-05-31T00:57:26.469Z,70.56
2018-05-31T00:59:53.984Z,70.71
2018-05-31T01:02:21.513Z,70.78
2018-05-31T01:04:49.101Z,70.79
2018-05-31T01:07:16.613Z,70.94
2018-05-31T01:09:44.186Z,70.84
2018-05-31T01:12:11.728Z,70.87
2018-05-31T01:14:39.252Z,70.91
2018-05-31T01:17:06.721Z,70.99
2018-05-31T01:19:34.225Z,71.06
2018-05-31T01:22:01.744Z,71.21
2018-05-31T01:24:29.293Z,71.37
2018-05-31T01:26:56.819Z,71.42
2018-05-31T01:29:24.314Z,71.47
2018-05-31T01:31:51.817Z,71.52
2018-05-31T01:34:19.338Z,71.65
2018-05-31T01:36:46.838Z,71.59
2018-05-31T01:39:18.127Z,71.61
2018-05-31T01:41:45.634Z,71.80
2018-05-31T01:44:13.119Z,71.78
2018-05-31T01:46:40.914Z,71.87
2018-05-31T01:49:08.406Z,71.87
2018-05-31T01:51:35.912Z,72.08
2018-05-31T01:54:03.427Z,72.22
2018-05-31T01:56:30.953Z,72.21
2018-05-31T01:58:58.452Z,72.18
2018-05-31T02:01:25.924Z,72.18
2018-05-31T02:03:53.437Z,72.15
2018-05-31T02:06:20.916Z,72.35
2018-05-31T02:08:48.424Z,72.46
2018-05-31T02:11:16.048Z,72.59
2018-05-31T02:13:43.658Z,72.52
2018-05-31T02:16:11.155Z,72.49
2018-05-31T02:18:38.678Z,72.53
2018-05-31T02:21:06.223Z,72.62
2018-05-31T02:23:33.728Z,72.81
2018-05-31T02:26:01.306Z,72.91
2018-05-31T02:28:28.784Z,73.13
2018-05-31T02:30:56.262Z,73.61
2018-05-31T02:33:23.802Z,73.68
2018-05-31T02:35:51.292Z,73.63
2018-05-31T02:38:18.799Z,73.71
2018-05-31T02:40:46.324Z,73.81
2018-05-31T02:43:13.874Z,73.83
2018-05-31T02:45:41.385Z,73.83
2018-05-31T02:48:08.908Z,73.73
2018-05-31T02:50:36.459Z,73.73
2018-05-31T02:53:03.935Z,73.68
2018-05-31T02:55:31.425Z,73.89
2018-05-31T02:57:58.922Z,74.05
2018-05-31T03:00:26.406Z,74.23
2018-05-31T03:02:53.993Z,74.16
2018-05-31T03:05:21.488Z,74.27
2018-05-31T03:07:48.961Z,74.44
2018-05-31T03:10:16.452Z,74.43
2018-05-31T03:12:43.933Z,74.52
2018-05-31T03:15:11.466Z,74.59
2018-05-31T03:17:38.943Z,74.60
2018-05-31T03:20:06.510Z,74.65
2018-05-31T03:22:34.074Z,74.52
2018-05-31T03:25:01.593Z,74.81
2018-05-31T03:27:29.084Z,75.20
2018-05-31T03:29:56.572Z,75.18
2018-05-31T03:32:24.101Z,75.30
2018-05-31T03:34:51.641Z,75.61
2018-05-31T03:37:19.177Z,75.78
2018-05-31T03:39:46.791Z,75.55
2018-05-31T03:42:14.338Z,74.90
2018-05-31T03:44:41.871Z,74.78
2018-05-31T03:47:09.389Z,74.48
2018-05-31T03:49:36.880Z,74.28
2018-05-31T03:52:04.354Z,73.68
2018-05-31T03:54:31.857Z,73.31
2018-05-31T03:56:59.366Z,72.85
2018-05-31T03:59:26.970Z,72.65
2018-05-31T04:01:54.461Z,69.98
2018-05-31T04:04:22.863Z,65.76
2018-05-31T04:06:50.432Z,62.76
2018-05-31T04:09:18.023Z,60.33
2018-05-31T04:11:45.557Z,59.23
2018-05-31T04:14:13.038Z,58.50
2018-05-31T04:16:40.569Z,58.03
2018-05-31T04:19:08.048Z,56.95
2018-05-31T04:21:35.546Z,56.85
2018-05-31T04:24:03.027Z,54.34
2018-05-31T04:26:30.611Z,53.41
2018-05-31T04:28:58.101Z,52.66
2018-05-31T04:31:25.601Z,51.99
2018-05-31T04:33:53.117Z,51.60
2018-05-31T04:36:20.604Z,51.45
2018-05-31T04:38:48.096Z,50.63
2018-05-31T04:41:15.752Z,49.99
2018-05-31T04:43:43.228Z,49.59
2018-05-31T04:46:10.715Z,48.94
2018-05-31T04:48:38.236Z,48.48
2018-05-31T04:51:05.737Z,48.30
2018-05-31T04:53:33.292Z,48.86
2018-05-31T04:56:00.767Z,50.24
2018-05-31T04:58:28.382Z,49.71
2018-05-31T05:00:55.903Z,50.21
2018-05-31T05:03:23.419Z,49.79
2018-05-31T05:05:50.925Z,49.82
2018-05-31T05:08:18.384Z,49.04
2018-05-31T05:10:45.895Z,48.29
2018-05-31T05:13:13.386Z,46.82
2018-05-31T05:15:40.864Z,46.15
2018-05-31T05:18:08.333Z,45.98
2018-05-31T05:20:35.846Z,45.46
2018-05-31T05:23:03.340Z,46.13
2018-05-31T05:25:30.848Z,45.55
2018-05-31T05:27:58.354Z,46.31
2018-05-31T05:30:25.860Z,47.24
2018-05-31T05:32:53.398Z,46.65
2018-05-31T05:35:20.946Z,47.30
2018-05-31T05:37:48.431Z,46.08
2018-05-31T05:40:15.955Z,46.54
2018-05-31T05:42:43.436Z,45.07
2018-05-31T05:45:10.974Z,47.22
2018-05-31T05:47:38.496Z,50.34
2018-05-31T05:50:05.992Z,51.85
2018-05-31T05:52:33.579Z,54.57
2018-05-31T05:55:01.078Z,56.94
2018-05-31T05:57:28.565Z,58.74
2018-05-31T05:59:56.114Z,59.25
2018-05-31T06:02:23.656Z,59.75
2018-05-31T06:04:51.153Z,59.69
2018-05-31T06:07:18.653Z,59.73
2018-05-31T06:09:46.184Z,59.51
2018-05-31T06:12:13.688Z,59.55
2018-05-31T06:14:41.203Z,59.88
2018-05-31T06:17:08.702Z,59.99
2018-05-31T06:19:36.221Z,60.06
2018-05-31T06:22:03.737Z,60.74
2018-05-31T06:24:31.340Z,60.87
2018-05-31T06:26:58.829Z,60.00
2018-05-31T06:29:26.432Z,59.64
2018-05-31T06:31:53.899Z,59.68
2018-05-31T06:34:21.465Z,58.81
2018-05-31T06:36:48.945Z,58.18
2018-05-31T06:39:16.414Z,56.71
2018-05-31T06:41:43.893Z,55.42
2018-05-31T06:44:11.375Z,54.50
2018-05-31T06:46:38.889Z,53.58
2018-05-31T06:49:06.372Z,52.11
2018-05-31T06:51:33.952Z,51.48
2018-05-31T06:54:01.464Z,51.29
2018-05-31T06:56:29.026Z,50.71
2018-05-31T06:58:56.536Z,50.50
2018-05-31T07:01:24.080Z,48.38
2018-05-31T07:03:51.538Z,48.24
2018-05-31T07:06:19.168Z,48.71
2018-05-31T07:08:46.680Z,47.79
2018-05-31T07:11:14.160Z,46.96
2018-05-31T07:13:41.645Z,46.95
2018-05-31T07:16:09.177Z,46.69
2018-05-31T07:18:36.641Z,46.61
2018-05-31T07:21:04.104Z,47.15
2018-05-31T07:23:31.605Z,45.71
2018-05-31T07:25:59.132Z,45.92
2018-05-31T07:28:26.654Z,45.32
2018-05-31T07:30:54.162Z,44.84
2018-05-31T07:33:21.633Z,44.87
2018-05-31T07:35:49.168Z,44.59
2018-05-31T07:38:16.645Z,44.57
2018-05-31T07:40:44.239Z,44.42
2018-05-31T07:43:11.763Z,44.24
2018-05-31T07:45:39.333Z,44.12
2018-05-31T07:48:06.798Z,43.61
2018-05-31T07:50:34.269Z,43.60
2018-05-31T07:53:01.828Z,43.68
2018-05-31T07:55:29.355Z,43.47
2018-05-31T07:57:56.820Z,43.60
2018-05-31T08:00:24.283Z,43.41
2018-05-31T08:02:51.800Z,43.25
2018-05-31T08:05:19.313Z,43.36
2018-05-31T08:07:46.817Z,43.67
2018-05-31T08:10:14.292Z,43.64
2018-05-31T08:12:41.827Z,43.75
2018-05-31T08:15:09.318Z,43.26
2018-05-31T08:17:36.788Z,42.94
2018-05-31T08:20:04.318Z,43.36
2018-05-31T08:22:31.801Z,42.99
2018-05-31T08:24:59.286Z,42.01
2018-05-31T08:27:26.759Z,41.54
2018-05-31T08:29:54.207Z,40.72
2018-05-31T08:32:21.731Z,41.01
2018-05-31T08:34:49.296Z,40.65
2018-05-31T08:37:16.840Z,41.02
2018-05-31T08:39:44.353Z,41.42
2018-05-31T08:42:11.812Z,41.21
2018-05-31T08:44:39.322Z,41.32
2018-05-31T08:47:06.845Z,41.25
2018-05-31T08:49:34.334Z,40.91
2018-05-31T08:52:01.784Z,40.77
2018-05-31T08:54:29.276Z,40.58
2018-05-31T08:56:56.789Z,40.36
2018-05-31T08:59:24.251Z,40.36
2018-05-31T09:01:51.799Z,39.99
2018-05-31T09:04:19.264Z,39.60
2018-05-31T09:06:46.752Z,39.31
2018-05-31T09:09:14.257Z,38.69
2018-05-31T09:11:41.839Z,38.56
2018-05-31T09:14:09.316Z,38.74
2018-05-31T09:16:36.828Z,38.96
2018-05-31T09:19:04.409Z,39.05
2018-05-31T09:21:32.000Z,39.04
2018-05-31T09:23:59.484Z,38.51
2018-05-31T09:26:26.984Z,38.55
2018-05-31T09:28:54.472Z,38.29
2018-05-31T09:31:21.981Z,37.73
2018-05-31T09:33:49.589Z,37.39
2018-05-31T09:36:17.095Z,37.33
2018-05-31T09:38:44.601Z,36.99
2018-05-31T09:41:12.134Z,37.54
2018-05-31T09:43:39.595Z,36.90
2018-05-31T09:46:07.078Z,37.11
2018-05-31T09:48:34.551Z,37.42
2018-05-31T09:51:02.017Z,37.85
2018-05-31T09:53:29.676Z,37.86
2018-05-31T09:55:57.222Z,37.66
2018-05-31T09:58:24.717Z,37.36
2018-05-31T10:00:52.231Z,37.26
2018-05-31T10:03:19.820Z,37.27
2018-05-31T10:05:47.370Z,37.03
2018-05-31T10:08:14.849Z,37.15
2018-05-31T10:10:42.367Z,37.76
2018-05-31T10:13:09.883Z,38.24
2018-05-31T10:15:37.339Z,38.18
2018-05-31T10:18:04.821Z,38.81
2018-05-31T10:20:32.328Z,37.93
2018-05-31T10:22:59.867Z,37.77
2018-05-31T10:25:27.343Z,36.92
2018-05-31T10:27:54.842Z,36.67
2018-05-31T10:30:22.340Z,36.19
2018-05-31T10:32:49.892Z,36.01
2018-05-31T10:35:17.448Z,35.46
2018-05-31T10:37:44.939Z,35.62
2018-05-31T10:40:12.444Z,35.36
2018-05-31T10:42:39.941Z,35.56
2018-05-31T10:45:07.453Z,35.64
2018-05-31T10:47:34.934Z,34.89
2018-05-31T10:50:02.409Z,34.77
2018-05-31T10:52:29.913Z,34.80
2018-05-31T10:54:57.395Z,34.53
2018-05-31T10:57:24.874Z,34.21
2018-05-31T10:59:52.387Z,34.21
2018-05-31T11:02:19.986Z,34.75
2018-05-31T11:04:47.471Z,34.33
2018-05-31T11:07:14.947Z,34.08
2018-05-31T11:09:42.420Z,34.77
2018-05-31T11:12:09.916Z,34.10
2018-05-31T11:14:37.399Z,33.36
2018-05-31T11:17:04.880Z,33.35
2018-05-31T11:19:32.347Z,33.40
2018-05-31T11:21:59.827Z,33.11
2018-05-31T11:24:27.380Z,33.18
2018-05-31T11:26:54.945Z,33.03
2018-05-31T11:29:22.398Z,33.03
2018-05-31T11:31:49.898Z,33.13
2018-05-31T11:34:17.398Z,33.75
2018-05-31T11:36:44.923Z,33.48
2018-05-31T11:39:12.429Z,33.47
2018-05-31T11:41:39.969Z,33.35
2018-05-31T11:44:07.413Z,33.15
2018-05-31T11:46:35.007Z,33.05
2018-05-31T11:49:02.607Z,33.21
2018-05-31T11:51:30.118Z,33.01
2018-05-31T11:53:57.621Z,33.11
2018-05-31T11:56:25.162Z,33.16
2018-05-31T11:58:52.720Z,33.31
2018-05-31T12:01:20.333Z,33.52
2018-05-31T12:03:47.852Z,34.02
2018-05-31T12:06:15.386Z,33.84
2018-05-31T12:08:42.943Z,33.63
2018-05-31T12:11:10.512Z,33.74
2018-05-31T12:13:38.044Z,33.66
2018-05-31T12:16:05.547Z,34.05
2018-05-31T12:18:33.046Z,33.99
2018-05-31T12:21:00.577Z,33.59
2018-05-31T12:23:28.074Z,34.29
2018-05-31T12:25:55.570Z,34.22
2018-05-31T12:28:23.150Z,34.00
2018-05-31T12:30:50.652Z,33.75
2018-05-31T12:33:18.128Z,33.66
2018-05-31T12:35:45.589Z,33.82
2018-05-31T12:38:13.135Z,33.54
2018-05-31T12:40:40.614Z,33.40
2018-05-31T12:43:08.103Z,33.75
2018-05-31T12:45:35.643Z,33.99
2018-05-31T12:48:03.133Z,34.63
